sensor_id;sensor_type;location;lat;lon;timestamp;temperature;humidity
4635;DHT22;2330;48.158;11.816;2023-06-14T00:00:44;14.90;81.60
4635;DHT22;2330;48.158;11.816;2023-06-14T00:03:11;14.80;81.20
4635;DHT22;2330;48.158;11.816;2023-06-14T00:05:39;14.80;80.90
4635;DHT22;2330;48.158;11.816;2023-06-14T00:08:09;14.80;81.30
4635;DHT22;2330;48.158;11.816;2023-06-14T00:10:37;14.80;81.50
4635;DHT22;2330;48.158;11.816;2023-06-14T00:13:05;14.70;81.60
4635;DHT22;2330;48.158;11.816;2023-06-14T00:15:34;14.70;81.80
4635;DHT22;2330;48.158;11.816;2023-06-14T00:18:01;14.70;81.80
4635;DHT22;2330;48.158;11.816;2023-06-14T00:20:29;14.60;81.90
4635;DHT22;2330;48.158;11.816;2023-06-14T00:22:58;14.50;82.10
4635;DHT22;2330;48.158;11.816;2023-06-14T00:25:25;14.40;81.70
4635;DHT22;2330;48.158;11.816;2023-06-14T00:27:55;14.50;82.10
4635;DHT22;2330;48.158;11.816;2023-06-14T00:30:23;14.50;82.20
4635;DHT22;2330;48.158;11.816;2023-06-14T00:32:50;14.60;82.20
4635;DHT22;2330;48.158;11.816;2023-06-14T00:35:18;14.70;82.40
4635;DHT22;2330;48.158;11.816;2023-06-14T00:37:45;14.70;82.10
4635;DHT22;2330;48.158;11.816;2023-06-14T00:40:12;14.60;82.00
4635;DHT22;2330;48.158;11.816;2023-06-14T00:42:39;14.70;82.20
4635;DHT22;2330;48.158;11.816;2023-06-14T00:45:06;14.70;82.10
4635;DHT22;2330;48.158;11.816;2023-06-14T00:47:35;14.50;82.20
4635;DHT22;2330;48.158;11.816;2023-06-14T00:50:02;14.30;82.50
4635;DHT22;2330;48.158;11.816;2023-06-14T00:52:30;14.20;83.10
4635;DHT22;2330;48.158;11.816;2023-06-14T00:54:59;14.10;83.50
4635;DHT22;2330;48.158;11.816;2023-06-14T00:57:26;14.10;83.50
4635;DHT22;2330;48.158;11.816;2023-06-14T00:59:53;14.00;84.00
4635;DHT22;2330;48.158;11.816;2023-06-14T01:02:22;13.90;85.00
4635;DHT22;2330;48.158;11.816;2023-06-14T01:04:50;13.90;84.90
4635;DHT22;2330;48.158;11.816;2023-06-14T01:10:12;13.90;85.00
4635;DHT22;2330;48.158;11.816;2023-06-14T01:12:58;13.80;85.40
4635;DHT22;2330;48.158;11.816;2023-06-14T01:15:26;13.80;85.50
4635;DHT22;2330;48.158;11.816;2023-06-14T01:17:53;13.70;85.40
4635;DHT22;2330;48.158;11.816;2023-06-14T01:20:31;13.70;85.10
4635;DHT22;2330;48.158;11.816;2023-06-14T01:22:59;13.60;85.50
4635;DHT22;2330;48.158;11.816;2023-06-14T01:25:26;13.50;86.30
4635;DHT22;2330;48.158;11.816;2023-06-14T01:27:57;13.60;86.60
4635;DHT22;2330;48.158;11.816;2023-06-14T01:30:25;13.50;87.10
4635;DHT22;2330;48.158;11.816;2023-06-14T01:32:54;13.50;86.90
4635;DHT22;2330;48.158;11.816;2023-06-14T01:35:22;13.50;87.10
4635;DHT22;2330;48.158;11.816;2023-06-14T01:37:49;13.60;87.00
4635;DHT22;2330;48.158;11.816;2023-06-14T01:40:18;13.50;87.00
4635;DHT22;2330;48.158;11.816;2023-06-14T01:42:47;13.50;87.30
4635;DHT22;2330;48.158;11.816;2023-06-14T01:45:16;13.50;87.40
4635;DHT22;2330;48.158;11.816;2023-06-14T01:47:44;13.30;87.70
4635;DHT22;2330;48.158;11.816;2023-06-14T01:50:13;13.10;87.90
4635;DHT22;2330;48.158;11.816;2023-06-14T01:52:40;13.10;88.30
4635;DHT22;2330;48.158;11.816;2023-06-14T01:55:07;12.90;89.00
4635;DHT22;2330;48.158;11.816;2023-06-14T01:57:34;12.80;89.00
4635;DHT22;2330;48.158;11.816;2023-06-14T02:00:01;12.60;89.50
4635;DHT22;2330;48.158;11.816;2023-06-14T02:02:30;12.50;89.60
4635;DHT22;2330;48.158;11.816;2023-06-14T02:04:57;12.50;90.00
4635;DHT22;2330;48.158;11.816;2023-06-14T02:07:24;12.50;90.10
4635;DHT22;2330;48.158;11.816;2023-06-14T02:09:51;12.50;89.90
4635;DHT22;2330;48.158;11.816;2023-06-14T02:12:18;12.60;89.70
4635;DHT22;2330;48.158;11.816;2023-06-14T02:14:45;12.70;89.60
4635;DHT22;2330;48.158;11.816;2023-06-14T02:17:11;12.70;89.50
4635;DHT22;2330;48.158;11.816;2023-06-14T02:19:38;12.70;89.30
4635;DHT22;2330;48.158;11.816;2023-06-14T02:22:05;12.60;89.60
4635;DHT22;2330;48.158;11.816;2023-06-14T02:24:32;12.50;90.30
4635;DHT22;2330;48.158;11.816;2023-06-14T02:26:59;12.60;90.20
4635;DHT22;2330;48.158;11.816;2023-06-14T02:29:26;12.70;90.00
4635;DHT22;2330;48.158;11.816;2023-06-14T02:31:53;12.80;89.80
4635;DHT22;2330;48.158;11.816;2023-06-14T02:34:20;12.90;89.70
4635;DHT22;2330;48.158;11.816;2023-06-14T02:36:48;12.80;89.70
4635;DHT22;2330;48.158;11.816;2023-06-14T02:39:16;12.80;89.60
4635;DHT22;2330;48.158;11.816;2023-06-14T02:41:44;12.80;90.10
4635;DHT22;2330;48.158;11.816;2023-06-14T02:44:12;12.70;89.90
4635;DHT22;2330;48.158;11.816;2023-06-14T02:46:39;12.60;90.20
4635;DHT22;2330;48.158;11.816;2023-06-14T02:49:06;12.60;90.30
4635;DHT22;2330;48.158;11.816;2023-06-14T02:51:33;12.60;90.40
4635;DHT22;2330;48.158;11.816;2023-06-14T02:53:59;12.40;91.00
4635;DHT22;2330;48.158;11.816;2023-06-14T02:56:26;12.30;91.40
4635;DHT22;2330;48.158;11.816;2023-06-14T02:58:54;12.20;91.60
4635;DHT22;2330;48.158;11.816;2023-06-14T03:01:21;12.10;91.90
4635;DHT22;2330;48.158;11.816;2023-06-14T03:03:48;11.90;92.40
4635;DHT22;2330;48.158;11.816;2023-06-14T03:06:15;11.80;92.90
4635;DHT22;2330;48.158;11.816;2023-06-14T03:08:43;11.70;93.00
4635;DHT22;2330;48.158;11.816;2023-06-14T03:11:10;11.70;93.40
4635;DHT22;2330;48.158;11.816;2023-06-14T03:13:37;11.70;93.60
4635;DHT22;2330;48.158;11.816;2023-06-14T03:16:05;11.60;93.60
4635;DHT22;2330;48.158;11.816;2023-06-14T03:18:33;11.80;93.30
4635;DHT22;2330;48.158;11.816;2023-06-14T03:21:02;11.70;93.60
4635;DHT22;2330;48.158;11.816;2023-06-14T03:23:30;11.90;93.60
4635;DHT22;2330;48.158;11.816;2023-06-14T03:25:57;12.00;93.20
4635;DHT22;2330;48.158;11.816;2023-06-14T03:28:24;12.00;93.30
4635;DHT22;2330;48.158;11.816;2023-06-14T03:30:52;12.10;93.10
4635;DHT22;2330;48.158;11.816;2023-06-14T03:33:19;12.10;93.00
4635;DHT22;2330;48.158;11.816;2023-06-14T03:35:46;12.10;92.90
4635;DHT22;2330;48.158;11.816;2023-06-14T03:38:12;12.20;92.80
4635;DHT22;2330;48.158;11.816;2023-06-14T03:40:39;12.20;92.70
4635;DHT22;2330;48.158;11.816;2023-06-14T03:43:06;12.20;93.00
4635;DHT22;2330;48.158;11.816;2023-06-14T03:45:33;12.20;93.00
4635;DHT22;2330;48.158;11.816;2023-06-14T03:48:00;12.30;92.80
4635;DHT22;2330;48.158;11.816;2023-06-14T03:50:27;12.30;92.70
4635;DHT22;2330;48.158;11.816;2023-06-14T03:52:54;12.30;92.60
4635;DHT22;2330;48.158;11.816;2023-06-14T03:55:21;12.30;92.60
4635;DHT22;2330;48.158;11.816;2023-06-14T03:58:11;12.40;92.60
4635;DHT22;2330;48.158;11.816;2023-06-14T04:00:39;12.40;92.60
4635;DHT22;2330;48.158;11.816;2023-06-14T04:03:06;12.40;92.40
4635;DHT22;2330;48.158;11.816;2023-06-14T04:05:34;12.30;92.80
4635;DHT22;2330;48.158;11.816;2023-06-14T04:08:01;12.20;93.60
4635;DHT22;2330;48.158;11.816;2023-06-14T04:10:28;12.20;93.50
4635;DHT22;2330;48.158;11.816;2023-06-14T04:12:55;12.30;93.50
4635;DHT22;2330;48.158;11.816;2023-06-14T04:15:22;12.20;93.50
4635;DHT22;2330;48.158;11.816;2023-06-14T04:17:49;12.30;93.50
4635;DHT22;2330;48.158;11.816;2023-06-14T04:20:16;12.30;93.60
4635;DHT22;2330;48.158;11.816;2023-06-14T04:22:43;12.30;93.40
4635;DHT22;2330;48.158;11.816;2023-06-14T04:25:10;12.40;93.30
4635;DHT22;2330;48.158;11.816;2023-06-14T04:27:38;12.50;93.20
4635;DHT22;2330;48.158;11.816;2023-06-14T04:30:05;12.50;93.30
4635;DHT22;2330;48.158;11.816;2023-06-14T04:32:32;12.60;93.20
4635;DHT22;2330;48.158;11.816;2023-06-14T04:35:00;12.70;93.40
4635;DHT22;2330;48.158;11.816;2023-06-14T04:37:30;12.60;93.30
4635;DHT22;2330;48.158;11.816;2023-06-14T04:39:57;12.60;93.40
4635;DHT22;2330;48.158;11.816;2023-06-14T04:42:24;12.60;93.40
4635;DHT22;2330;48.158;11.816;2023-06-14T04:44:57;12.50;94.30
4635;DHT22;2330;48.158;11.816;2023-06-14T04:47:23;12.60;93.90
4635;DHT22;2330;48.158;11.816;2023-06-14T04:49:59;12.70;93.70
4635;DHT22;2330;48.158;11.816;2023-06-14T04:52:27;12.90;93.50
4635;DHT22;2330;48.158;11.816;2023-06-14T04:54:56;12.90;93.30
4635;DHT22;2330;48.158;11.816;2023-06-14T04:57:23;13.10;92.80
4635;DHT22;2330;48.158;11.816;2023-06-14T04:59:51;13.10;92.50
4635;DHT22;2330;48.158;11.816;2023-06-14T05:02:22;13.20;92.60
4635;DHT22;2330;48.158;11.816;2023-06-14T05:04:50;13.30;93.90
4635;DHT22;2330;48.158;11.816;2023-06-14T05:07:17;13.30;93.00
4635;DHT22;2330;48.158;11.816;2023-06-14T05:09:44;13.40;92.50
4635;DHT22;2330;48.158;11.816;2023-06-14T05:12:11;13.40;92.90
4635;DHT22;2330;48.158;11.816;2023-06-14T05:14:38;13.50;92.50
4635;DHT22;2330;48.158;11.816;2023-06-14T05:17:05;13.80;92.50
4635;DHT22;2330;48.158;11.816;2023-06-14T05:19:32;14.00;91.80
4635;DHT22;2330;48.158;11.816;2023-06-14T05:21:59;14.30;90.70
4635;DHT22;2330;48.158;11.816;2023-06-14T05:24:26;14.50;89.30
4635;DHT22;2330;48.158;11.816;2023-06-14T05:26:53;14.70;89.10
4635;DHT22;2330;48.158;11.816;2023-06-14T05:29:20;15.10;89.00
4635;DHT22;2330;48.158;11.816;2023-06-14T05:31:46;15.50;88.60
4635;DHT22;2330;48.158;11.816;2023-06-14T05:34:13;15.60;86.90
4635;DHT22;2330;48.158;11.816;2023-06-14T05:36:40;15.60;85.80
4635;DHT22;2330;48.158;11.816;2023-06-14T05:39:07;15.70;86.20
4635;DHT22;2330;48.158;11.816;2023-06-14T05:41:35;16.10;86.30
4635;DHT22;2330;48.158;11.816;2023-06-14T05:44:01;16.30;84.30
4635;DHT22;2330;48.158;11.816;2023-06-14T05:46:28;16.80;84.90
4635;DHT22;2330;48.158;11.816;2023-06-14T05:48:55;17.10;83.10
4635;DHT22;2330;48.158;11.816;2023-06-14T05:51:22;17.40;82.80
4635;DHT22;2330;48.158;11.816;2023-06-14T05:53:52;17.80;82.70
4635;DHT22;2330;48.158;11.816;2023-06-14T05:56:19;18.10;81.90
4635;DHT22;2330;48.158;11.816;2023-06-14T05:58:46;17.90;79.80
4635;DHT22;2330;48.158;11.816;2023-06-14T06:01:14;17.60;80.40
4635;DHT22;2330;48.158;11.816;2023-06-14T06:03:41;17.70;81.10
4635;DHT22;2330;48.158;11.816;2023-06-14T06:06:08;18.00;81.00
4635;DHT22;2330;48.158;11.816;2023-06-14T06:08:35;18.10;80.00
4635;DHT22;2330;48.158;11.816;2023-06-14T06:11:02;18.10;79.50
4635;DHT22;2330;48.158;11.816;2023-06-14T06:13:29;18.10;80.40
4635;DHT22;2330;48.158;11.816;2023-06-14T06:15:55;18.00;80.20
4635;DHT22;2330;48.158;11.816;2023-06-14T06:18:23;18.50;79.60
4635;DHT22;2330;48.158;11.816;2023-06-14T06:20:49;18.70;79.30
4635;DHT22;2330;48.158;11.816;2023-06-14T06:23:16;19.10;78.50
4635;DHT22;2330;48.158;11.816;2023-06-14T06:25:43;19.30;78.60
4635;DHT22;2330;48.158;11.816;2023-06-14T06:28:10;19.80;78.30
4635;DHT22;2330;48.158;11.816;2023-06-14T06:30:38;19.90;76.20
4635;DHT22;2330;48.158;11.816;2023-06-14T06:33:05;19.80;77.10
4635;DHT22;2330;48.158;11.816;2023-06-14T06:35:32;20.20;77.60
4635;DHT22;2330;48.158;11.816;2023-06-14T06:38:00;19.80;75.10
4635;DHT22;2330;48.158;11.816;2023-06-14T06:40:27;19.40;77.10
4635;DHT22;2330;48.158;11.816;2023-06-14T06:42:54;19.20;76.30
4635;DHT22;2330;48.158;11.816;2023-06-14T06:45:21;19.20;78.30
4635;DHT22;2330;48.158;11.816;2023-06-14T06:47:51;19.70;77.70
4635;DHT22;2330;48.158;11.816;2023-06-14T06:50:18;20.20;76.00
4635;DHT22;2330;48.158;11.816;2023-06-14T06:52:46;20.50;75.40
4635;DHT22;2330;48.158;11.816;2023-06-14T06:55:13;20.80;74.50
4635;DHT22;2330;48.158;11.816;2023-06-14T06:57:41;20.30;73.80
4635;DHT22;2330;48.158;11.816;2023-06-14T07:00:09;20.10;74.40
4635;DHT22;2330;48.158;11.816;2023-06-14T07:02:36;20.10;74.00
4635;DHT22;2330;48.158;11.816;2023-06-14T07:05:03;20.50;74.60
4635;DHT22;2330;48.158;11.816;2023-06-14T07:07:31;20.90;74.20
4635;DHT22;2330;48.158;11.816;2023-06-14T07:09:58;21.10;73.30
4635;DHT22;2330;48.158;11.816;2023-06-14T07:12:25;21.20;72.80
4635;DHT22;2330;48.158;11.816;2023-06-14T07:14:52;21.10;72.10
4635;DHT22;2330;48.158;11.816;2023-06-14T07:17:19;20.90;72.90
4635;DHT22;2330;48.158;11.816;2023-06-14T07:19:46;21.10;72.90
4635;DHT22;2330;48.158;11.816;2023-06-14T07:22:12;21.30;72.30
4635;DHT22;2330;48.158;11.816;2023-06-14T07:24:39;21.00;73.40
4635;DHT22;2330;48.158;11.816;2023-06-14T07:27:07;21.20;73.40
4635;DHT22;2330;48.158;11.816;2023-06-14T07:29:34;21.00;72.60
4635;DHT22;2330;48.158;11.816;2023-06-14T07:32:01;21.20;72.90
4635;DHT22;2330;48.158;11.816;2023-06-14T07:34:28;21.70;73.20
4635;DHT22;2330;48.158;11.816;2023-06-14T07:36:55;22.00;73.00
4635;DHT22;2330;48.158;11.816;2023-06-14T07:39:22;22.50;71.30
4635;DHT22;2330;48.158;11.816;2023-06-14T07:41:49;22.80;70.80
4635;DHT22;2330;48.158;11.816;2023-06-14T07:44:16;23.00;70.60
4635;DHT22;2330;48.158;11.816;2023-06-14T07:46:43;22.70;69.50
4635;DHT22;2330;48.158;11.816;2023-06-14T07:49:10;22.90;69.10
4635;DHT22;2330;48.158;11.816;2023-06-14T07:51:37;23.00;69.30
4635;DHT22;2330;48.158;11.816;2023-06-14T07:54:04;22.80;69.00
4635;DHT22;2330;48.158;11.816;2023-06-14T07:56:33;23.10;69.50
4635;DHT22;2330;48.158;11.816;2023-06-14T07:59:00;23.10;68.20
4635;DHT22;2330;48.158;11.816;2023-06-14T08:01:27;22.50;68.90
4635;DHT22;2330;48.158;11.816;2023-06-14T08:03:54;22.80;69.30
4635;DHT22;2330;48.158;11.816;2023-06-14T08:06:21;23.10;68.30
4635;DHT22;2330;48.158;11.816;2023-06-14T08:08:48;22.90;68.70
4635;DHT22;2330;48.158;11.816;2023-06-14T08:11:15;23.10;69.80
4635;DHT22;2330;48.158;11.816;2023-06-14T08:13:42;23.00;68.40
4635;DHT22;2330;48.158;11.816;2023-06-14T08:16:09;23.00;68.50
4635;DHT22;2330;48.158;11.816;2023-06-14T08:18:36;23.40;68.30
4635;DHT22;2330;48.158;11.816;2023-06-14T08:21:03;23.60;65.90
4635;DHT22;2330;48.158;11.816;2023-06-14T08:23:29;23.80;66.70
4635;DHT22;2330;48.158;11.816;2023-06-14T08:25:57;23.70;66.50
4635;DHT22;2330;48.158;11.816;2023-06-14T08:28:24;23.50;65.80
4635;DHT22;2330;48.158;11.816;2023-06-14T08:30:51;23.40;66.60
4635;DHT22;2330;48.158;11.816;2023-06-14T08:33:17;23.60;67.00
4635;DHT22;2330;48.158;11.816;2023-06-14T08:35:44;23.60;66.30
4635;DHT22;2330;48.158;11.816;2023-06-14T08:38:11;23.90;66.20
4635;DHT22;2330;48.158;11.816;2023-06-14T08:40:40;24.00;64.60
4635;DHT22;2330;48.158;11.816;2023-06-14T08:43:08;24.10;63.80
4635;DHT22;2330;48.158;11.816;2023-06-14T08:45:35;24.20;63.70
4635;DHT22;2330;48.158;11.816;2023-06-14T08:48:02;24.40;61.70
4635;DHT22;2330;48.158;11.816;2023-06-14T08:50:31;24.00;61.60
4635;DHT22;2330;48.158;11.816;2023-06-14T08:53:01;23.90;63.40
4635;DHT22;2330;48.158;11.816;2023-06-14T08:55:30;24.00;62.90
4635;DHT22;2330;48.158;11.816;2023-06-14T08:58:01;23.90;62.80
4635;DHT22;2330;48.158;11.816;2023-06-14T09:00:30;24.10;61.10
4635;DHT22;2330;48.158;11.816;2023-06-14T09:02:59;24.00;60.30
4635;DHT22;2330;48.158;11.816;2023-06-14T09:05:26;24.20;61.00
4635;DHT22;2330;48.158;11.816;2023-06-14T09:07:54;24.20;60.20
4635;DHT22;2330;48.158;11.816;2023-06-14T09:10:32;24.10;59.70
4635;DHT22;2330;48.158;11.816;2023-06-14T09:13:04;24.30;60.90
4635;DHT22;2330;48.158;11.816;2023-06-14T09:15:31;24.10;62.50
4635;DHT22;2330;48.158;11.816;2023-06-14T09:18:01;24.20;63.80
4635;DHT22;2330;48.158;11.816;2023-06-14T09:20:30;24.10;62.90
4635;DHT22;2330;48.158;11.816;2023-06-14T09:22:58;24.20;63.00
4635;DHT22;2330;48.158;11.816;2023-06-14T09:25:24;24.00;62.00
4635;DHT22;2330;48.158;11.816;2023-06-14T09:28:08;24.40;62.10
4635;DHT22;2330;48.158;11.816;2023-06-14T09:30:39;24.20;62.30
4635;DHT22;2330;48.158;11.816;2023-06-14T09:33:06;24.00;63.40
4635;DHT22;2330;48.158;11.816;2023-06-14T09:35:33;24.30;63.30
4635;DHT22;2330;48.158;11.816;2023-06-14T09:38:00;24.60;63.10
4635;DHT22;2330;48.158;11.816;2023-06-14T09:40:27;24.70;62.10
4635;DHT22;2330;48.158;11.816;2023-06-14T09:42:54;24.60;61.80
4635;DHT22;2330;48.158;11.816;2023-06-14T09:45:25;24.70;61.90
4635;DHT22;2330;48.158;11.816;2023-06-14T09:47:55;25.00;62.80
4635;DHT22;2330;48.158;11.816;2023-06-14T09:50:34;25.00;60.80
4635;DHT22;2330;48.158;11.816;2023-06-14T09:53:10;24.60;62.50
4635;DHT22;2330;48.158;11.816;2023-06-14T09:55:38;24.90;62.60
4635;DHT22;2330;48.158;11.816;2023-06-14T09:58:07;24.90;63.10
4635;DHT22;2330;48.158;11.816;2023-06-14T10:00:36;25.00;62.20
4635;DHT22;2330;48.158;11.816;2023-06-14T10:03:11;25.10;62.10
4635;DHT22;2330;48.158;11.816;2023-06-14T10:05:41;25.30;62.00
4635;DHT22;2330;48.158;11.816;2023-06-14T10:08:09;25.60;60.30
4635;DHT22;2330;48.158;11.816;2023-06-14T10:10:39;25.50;61.10
4635;DHT22;2330;48.158;11.816;2023-06-14T10:13:07;25.20;62.50
4635;DHT22;2330;48.158;11.816;2023-06-14T10:15:52;25.60;63.00
4635;DHT22;2330;48.158;11.816;2023-06-14T10:23:53;25.00;64.30
4635;DHT22;2330;48.158;11.816;2023-06-14T10:26:23;25.10;63.60
4635;DHT22;2330;48.158;11.816;2023-06-14T10:29:07;25.20;65.50
4635;DHT22;2330;48.158;11.816;2023-06-14T10:31:45;24.90;63.50
4635;DHT22;2330;48.158;11.816;2023-06-14T10:34:24;24.10;65.00
4635;DHT22;2330;48.158;11.816;2023-06-14T10:37:05;23.80;64.90
4635;DHT22;2330;48.158;11.816;2023-06-14T10:39:39;23.80;65.00
4635;DHT22;2330;48.158;11.816;2023-06-14T10:42:07;23.90;65.20
4635;DHT22;2330;48.158;11.816;2023-06-14T10:44:39;23.90;64.90
4635;DHT22;2330;48.158;11.816;2023-06-14T10:47:10;24.30;64.90
4635;DHT22;2330;48.158;11.816;2023-06-14T10:49:45;24.20;64.10
4635;DHT22;2330;48.158;11.816;2023-06-14T10:52:14;24.20;63.90
4635;DHT22;2330;48.158;11.816;2023-06-14T10:55:15;24.50;62.70
4635;DHT22;2330;48.158;11.816;2023-06-14T10:57:54;24.70;60.50
4635;DHT22;2330;48.158;11.816;2023-06-14T11:00:25;25.00;62.70
4635;DHT22;2330;48.158;11.816;2023-06-14T11:03:31;24.90;61.80
4635;DHT22;2330;48.158;11.816;2023-06-14T11:06:13;25.10;62.00
4635;DHT22;2330;48.158;11.816;2023-06-14T11:09:11;25.60;61.50
4635;DHT22;2330;48.158;11.816;2023-06-14T11:11:42;25.90;60.90
4635;DHT22;2330;48.158;11.816;2023-06-14T11:14:10;25.60;59.40
4635;DHT22;2330;48.158;11.816;2023-06-14T11:16:37;25.30;60.00
4635;DHT22;2330;48.158;11.816;2023-06-14T11:19:04;24.80;60.80
4635;DHT22;2330;48.158;11.816;2023-06-14T11:21:33;25.10;60.80
4635;DHT22;2330;48.158;11.816;2023-06-14T11:24:00;25.50;60.00
4635;DHT22;2330;48.158;11.816;2023-06-14T11:26:28;26.00;59.90
4635;DHT22;2330;48.158;11.816;2023-06-14T11:28:57;26.00;60.40
4635;DHT22;2330;48.158;11.816;2023-06-14T11:31:24;25.90;61.00
4635;DHT22;2330;48.158;11.816;2023-06-14T11:33:54;26.20;60.50
4635;DHT22;2330;48.158;11.816;2023-06-14T11:36:21;26.30;59.10
4635;DHT22;2330;48.158;11.816;2023-06-14T11:38:47;26.60;58.20
4635;DHT22;2330;48.158;11.816;2023-06-14T11:41:14;26.00;59.20
4635;DHT22;2330;48.158;11.816;2023-06-14T11:43:41;25.50;60.10
4635;DHT22;2330;48.158;11.816;2023-06-14T11:46:14;25.50;59.30
4635;DHT22;2330;48.158;11.816;2023-06-14T11:48:48;25.40;59.90
4635;DHT22;2330;48.158;11.816;2023-06-14T11:51:15;25.20;58.60
4635;DHT22;2330;48.158;11.816;2023-06-14T11:53:42;24.30;59.40
4635;DHT22;2330;48.158;11.816;2023-06-14T11:56:09;23.90;60.60
4635;DHT22;2330;48.158;11.816;2023-06-14T11:58:37;24.30;61.50
4635;DHT22;2330;48.158;11.816;2023-06-14T12:01:04;24.90;61.70
4635;DHT22;2330;48.158;11.816;2023-06-14T12:03:31;25.30;59.70
4635;DHT22;2330;48.158;11.816;2023-06-14T12:06:08;25.80;59.50
4635;DHT22;2330;48.158;11.816;2023-06-14T12:08:36;26.10;58.80
4635;DHT22;2330;48.158;11.816;2023-06-14T12:11:12;26.30;59.10
4635;DHT22;2330;48.158;11.816;2023-06-14T12:13:44;26.50;57.70
4635;DHT22;2330;48.158;11.816;2023-06-14T12:16:11;26.30;57.60
4635;DHT22;2330;48.158;11.816;2023-06-14T12:18:39;25.40;59.10
4635;DHT22;2330;48.158;11.816;2023-06-14T12:21:09;25.00;59.10
4635;DHT22;2330;48.158;11.816;2023-06-14T12:23:46;25.00;59.40
4635;DHT22;2330;48.158;11.816;2023-06-14T12:26:15;24.90;59.20
4635;DHT22;2330;48.158;11.816;2023-06-14T12:28:44;25.00;58.80
4635;DHT22;2330;48.158;11.816;2023-06-14T12:31:11;25.00;58.40
4635;DHT22;2330;48.158;11.816;2023-06-14T12:33:40;25.20;59.10
4635;DHT22;2330;48.158;11.816;2023-06-14T12:36:09;25.30;59.30
4635;DHT22;2330;48.158;11.816;2023-06-14T12:38:37;26.10;58.20
4635;DHT22;2330;48.158;11.816;2023-06-14T12:41:04;26.00;58.50
4635;DHT22;2330;48.158;11.816;2023-06-14T12:43:31;25.20;57.60
4635;DHT22;2330;48.158;11.816;2023-06-14T12:45:58;24.50;59.10
4635;DHT22;2330;48.158;11.816;2023-06-14T12:48:26;24.00;59.90
4635;DHT22;2330;48.158;11.816;2023-06-14T12:50:58;24.30;59.50
4635;DHT22;2330;48.158;11.816;2023-06-14T12:53:24;25.00;59.00
4635;DHT22;2330;48.158;11.816;2023-06-14T12:55:51;25.30;58.20
4635;DHT22;2330;48.158;11.816;2023-06-14T12:58:18;25.30;58.50
4635;DHT22;2330;48.158;11.816;2023-06-14T13:00:47;25.30;58.30
4635;DHT22;2330;48.158;11.816;2023-06-14T13:03:14;25.60;56.90
4635;DHT22;2330;48.158;11.816;2023-06-14T13:05:41;25.70;57.10
4635;DHT22;2330;48.158;11.816;2023-06-14T13:08:09;26.10;57.80
4635;DHT22;2330;48.158;11.816;2023-06-14T13:10:36;25.90;57.00
4635;DHT22;2330;48.158;11.816;2023-06-14T13:13:03;25.90;57.10
4635;DHT22;2330;48.158;11.816;2023-06-14T13:15:30;26.00;56.70
4635;DHT22;2330;48.158;11.816;2023-06-14T13:17:57;26.30;57.50
4635;DHT22;2330;48.158;11.816;2023-06-14T13:20:24;26.50;57.10
4635;DHT22;2330;48.158;11.816;2023-06-14T13:22:51;26.50;56.20
4635;DHT22;2330;48.158;11.816;2023-06-14T13:25:18;26.60;56.00
4635;DHT22;2330;48.158;11.816;2023-06-14T13:27:44;26.30;55.90
4635;DHT22;2330;48.158;11.816;2023-06-14T13:30:11;26.30;56.50
4635;DHT22;2330;48.158;11.816;2023-06-14T13:32:38;26.40;55.40
4635;DHT22;2330;48.158;11.816;2023-06-14T13:35:06;26.30;55.80
4635;DHT22;2330;48.158;11.816;2023-06-14T13:37:32;26.40;55.20
4635;DHT22;2330;48.158;11.816;2023-06-14T13:39:59;26.40;55.30
4635;DHT22;2330;48.158;11.816;2023-06-14T13:42:27;26.40;54.50
4635;DHT22;2330;48.158;11.816;2023-06-14T13:44:54;26.40;53.80
4635;DHT22;2330;48.158;11.816;2023-06-14T13:47:21;26.90;54.40
4635;DHT22;2330;48.158;11.816;2023-06-14T13:49:47;27.10;53.30
4635;DHT22;2330;48.158;11.816;2023-06-14T13:52:14;27.00;53.70
4635;DHT22;2330;48.158;11.816;2023-06-14T13:54:41;27.00;53.60
4635;DHT22;2330;48.158;11.816;2023-06-14T13:57:09;26.90;55.70
4635;DHT22;2330;48.158;11.816;2023-06-14T13:59:36;27.00;56.00
4635;DHT22;2330;48.158;11.816;2023-06-14T14:02:03;27.10;55.60
4635;DHT22;2330;48.158;11.816;2023-06-14T14:04:30;27.00;57.20
4635;DHT22;2330;48.158;11.816;2023-06-14T14:06:57;26.80;57.40
4635;DHT22;2330;48.158;11.816;2023-06-14T14:09:23;26.50;57.10
4635;DHT22;2330;48.158;11.816;2023-06-14T14:11:51;26.40;58.20
4635;DHT22;2330;48.158;11.816;2023-06-14T14:14:18;26.70;57.00
4635;DHT22;2330;48.158;11.816;2023-06-14T14:16:45;26.90;56.10
4635;DHT22;2330;48.158;11.816;2023-06-14T14:19:11;27.10;56.50
4635;DHT22;2330;48.158;11.816;2023-06-14T14:21:38;26.10;56.80
4635;DHT22;2330;48.158;11.816;2023-06-14T14:24:05;26.10;57.50
4635;DHT22;2330;48.158;11.816;2023-06-14T14:26:32;26.20;57.90
4635;DHT22;2330;48.158;11.816;2023-06-14T14:28:59;26.60;56.60
4635;DHT22;2330;48.158;11.816;2023-06-14T14:31:26;26.90;57.80
4635;DHT22;2330;48.158;11.816;2023-06-14T14:33:53;26.90;56.40
4635;DHT22;2330;48.158;11.816;2023-06-14T14:36:19;27.00;55.30
4635;DHT22;2330;48.158;11.816;2023-06-14T14:38:46;27.20;55.50
4635;DHT22;2330;48.158;11.816;2023-06-14T14:41:13;27.20;55.70
4635;DHT22;2330;48.158;11.816;2023-06-14T14:43:40;27.10;56.00
4635;DHT22;2330;48.158;11.816;2023-06-14T14:46:07;27.00;56.90
4635;DHT22;2330;48.158;11.816;2023-06-14T14:48:33;27.00;56.10
4635;DHT22;2330;48.158;11.816;2023-06-14T14:51:00;26.70;56.20
4635;DHT22;2330;48.158;11.816;2023-06-14T14:53:27;26.70;56.30
4635;DHT22;2330;48.158;11.816;2023-06-14T14:55:54;26.60;55.80
4635;DHT22;2330;48.158;11.816;2023-06-14T14:58:21;25.80;55.50
4635;DHT22;2330;48.158;11.816;2023-06-14T15:00:47;25.90;56.90
4635;DHT22;2330;48.158;11.816;2023-06-14T15:03:14;26.20;55.20
4635;DHT22;2330;48.158;11.816;2023-06-14T15:05:42;26.30;55.80
4635;DHT22;2330;48.158;11.816;2023-06-14T15:08:08;26.00;55.20
4635;DHT22;2330;48.158;11.816;2023-06-14T15:10:39;26.30;56.10
4635;DHT22;2330;48.158;11.816;2023-06-14T15:13:08;26.30;56.80
4635;DHT22;2330;48.158;11.816;2023-06-14T15:15:35;26.30;57.80
4635;DHT22;2330;48.158;11.816;2023-06-14T15:18:02;26.20;56.50
4635;DHT22;2330;48.158;11.816;2023-06-14T15:20:29;25.90;57.20
4635;DHT22;2330;48.158;11.816;2023-06-14T15:22:56;25.80;57.70
4635;DHT22;2330;48.158;11.816;2023-06-14T15:25:26;25.80;56.10
4635;DHT22;2330;48.158;11.816;2023-06-14T15:27:54;25.80;56.80
4635;DHT22;2330;48.158;11.816;2023-06-14T15:30:21;25.80;57.10
4635;DHT22;2330;48.158;11.816;2023-06-14T15:32:49;25.80;56.40
4635;DHT22;2330;48.158;11.816;2023-06-14T15:35:17;25.50;58.00
4635;DHT22;2330;48.158;11.816;2023-06-14T15:37:47;25.00;58.90
4635;DHT22;2330;48.158;11.816;2023-06-14T15:40:15;24.10;60.10
4635;DHT22;2330;48.158;11.816;2023-06-14T15:42:43;23.70;61.40
4635;DHT22;2330;48.158;11.816;2023-06-14T15:45:10;23.30;62.00
4635;DHT22;2330;48.158;11.816;2023-06-14T15:47:37;23.00;62.50
4635;DHT22;2330;48.158;11.816;2023-06-14T15:50:05;23.00;63.10
4635;DHT22;2330;48.158;11.816;2023-06-14T15:52:34;23.20;63.00
4635;DHT22;2330;48.158;11.816;2023-06-14T15:55:01;23.40;63.30
4635;DHT22;2330;48.158;11.816;2023-06-14T15:57:30;23.50;63.20
4635;DHT22;2330;48.158;11.816;2023-06-14T15:59:57;23.70;63.10